Hayward, California
Current Conditions -  °F | °C
As of 2:54 AM on Friday 31 Oct 2014 (Local Time) from KHWD Reporting Station
Broken Clouds Broken Clouds  
Wind Chill: 61°   Ceiling: 4800
Heat Index: 61°   Visibility: 10mi
Dew Point: 57°   Wind: 3mph
Humidity: 87%   Direction: 150°SSE
Pressure: 29.9"   Gusts: NA
Location:  37.67°N, 122.08°W
Report Text: KHWD 310954Z AUTO 15003KT 10SM SCT034 BKN048 16/14 A2990 RMK AO2 SLP133 T01610139
Loading
Personal Weather Stations






























Interactive Weather Map
Tropical Storm Tracking
New forecast layout! Learn more

10-Day Weather Forecast

Advertisements
Track Severe Weather on mobile